createdAt,value
2023-04-29T00:00:03.961Z,96621.91
2023-04-29T00:02:40.469Z,96614.50
2023-04-29T00:05:10.487Z,96605.63
2023-04-29T00:07:40.918Z,96606.91
2023-04-29T00:10:10.879Z,96602.34
2023-04-29T00:12:39.535Z,96600.44
2023-04-29T00:15:09.238Z,96594.63
2023-04-29T00:17:37.931Z,96593.16
2023-04-29T00:20:08.740Z,96585.34
2023-04-29T00:22:37.118Z,96584.63
2023-04-29T00:25:09.262Z,96582.88
2023-04-29T00:27:37.747Z,96579.56
2023-04-29T00:30:08.233Z,96579.13
2023-04-29T00:32:37.106Z,96579.69
2023-04-29T00:35:06.307Z,96578.91
2023-04-29T00:37:35.522Z,96577.41
2023-04-29T00:40:05.153Z,96574.34
2023-04-29T00:42:35.111Z,96580.03
2023-04-29T00:45:05.157Z,96573.22
2023-04-29T00:47:35.107Z,96577.81
2023-04-29T00:50:03.827Z,96586.81
2023-04-29T00:52:33.189Z,96573.47
2023-04-29T00:55:03.082Z,96576.38
2023-04-29T00:57:31.779Z,96579.44
2023-04-29T01:00:02.184Z,96582.63
2023-04-29T01:02:30.875Z,96579.44
2023-04-29T01:04:59.678Z,96583.75
2023-04-29T01:07:36.335Z,96586.63
2023-04-29T01:10:11.033Z,96581.69
2023-04-29T01:12:55.213Z,96578.69
2023-04-29T01:15:31.786Z,96582.09
2023-04-29T01:18:12.074Z,96575.84
2023-04-29T01:20:44.662Z,96584.81
2023-04-29T01:23:13.532Z,96576.91
2023-04-29T01:25:45.258Z,96576.69
2023-04-29T01:28:42.011Z,96576.69
2023-04-29T01:31:20.834Z,96570.69
2023-04-29T01:34:09.932Z,96574.53
2023-04-29T01:36:48.600Z,96570.56
2023-04-29T01:39:25.069Z,96572.97
2023-04-29T01:42:12.712Z,96571.94
2023-04-29T01:44:42.567Z,96577.28
2023-04-29T01:47:15.733Z,96572.34
2023-04-29T01:49:50.400Z,96576.09
2023-04-29T01:52:18.892Z,96578.69
2023-04-29T01:54:55.902Z,96575.16
2023-04-29T01:57:27.079Z,96573.56
2023-04-29T02:00:19.438Z,96575.31
2023-04-29T02:02:54.966Z,96575.97
2023-04-29T02:05:34.229Z,96574.97
2023-04-29T02:08:03.654Z,96582.63
2023-04-29T02:10:33.875Z,96583.22
2023-04-29T02:13:39.504Z,96581.50
2023-04-29T02:16:12.519Z,96589.81
2023-04-29T02:18:55.516Z,96589.81
2023-04-29T02:21:24.380Z,96591.41
2023-04-29T02:23:54.508Z,96594.97
2023-04-29T02:26:25.455Z,96593.03
2023-04-29T02:28:58.082Z,96588.34
2023-04-29T02:31:29.065Z,96591.06
2023-04-29T02:33:58.052Z,96590.19
2023-04-29T02:36:26.762Z,96598.06
2023-04-29T02:38:56.426Z,96596.94
2023-04-29T02:41:25.805Z,96584.06
2023-04-29T02:43:54.498Z,96593.09
2023-04-29T02:46:24.625Z,96595.94
2023-04-29T02:48:53.565Z,96589.53
2023-04-29T02:51:22.211Z,96592.53
2023-04-29T02:53:52.109Z,96588.88
2023-04-29T02:56:21.523Z,96594.34
2023-04-29T02:58:50.563Z,96583.59
2023-04-29T03:01:19.871Z,96582.31
2023-04-29T03:03:50.523Z,96577.00
2023-04-29T03:06:19.764Z,96584.88
2023-04-29T03:08:48.510Z,96588.06
2023-04-29T03:11:17.200Z,96585.00
2023-04-29T03:13:46.176Z,96582.94
2023-04-29T03:16:16.985Z,96582.28
2023-04-29T03:18:46.308Z,96589.31
2023-04-29T03:21:16.455Z,96585.34
2023-04-29T03:23:45.493Z,96586.13
2023-04-29T03:26:22.832Z,96581.13
2023-04-29T03:28:52.051Z,96583.50
2023-04-29T03:31:21.708Z,96588.31
2023-04-29T03:33:50.992Z,96588.44
2023-04-29T03:36:21.261Z,96587.75
2023-04-29T03:38:59.723Z,96592.31
2023-04-29T03:41:29.196Z,96597.47
2023-04-29T03:44:00.813Z,96587.66
2023-04-29T03:46:30.981Z,96593.00
2023-04-29T03:48:59.496Z,96583.66
2023-04-29T03:51:29.766Z,96584.34
2023-04-29T03:54:08.492Z,96583.50
2023-04-29T03:56:38.418Z,96581.59
2023-04-29T03:59:07.268Z,96584.34
2023-04-29T04:01:36.734Z,96589.94
2023-04-29T04:04:05.842Z,96586.06
2023-04-29T04:06:36.476Z,96593.22
2023-04-29T04:09:05.253Z,96594.63
2023-04-29T04:11:36.562Z,96604.13
2023-04-29T04:14:05.927Z,96590.44
2023-04-29T04:16:34.786Z,96594.56
2023-04-29T04:19:04.020Z,96592.63
2023-04-29T04:21:37.568Z,96597.75
2023-04-29T04:24:11.021Z,96598.63
2023-04-29T04:26:41.523Z,96609.13
2023-04-29T04:29:16.604Z,96601.97
2023-04-29T04:31:57.092Z,96599.00
2023-04-29T04:34:27.245Z,96599.00
2023-04-29T04:36:59.667Z,96608.91
2023-04-29T04:39:28.271Z,96598.75
2023-04-29T04:41:58.886Z,96598.53
2023-04-29T04:44:29.832Z,96610.84
2023-04-29T04:47:02.730Z,96613.47
2023-04-29T04:50:00.993Z,96620.06
2023-04-29T04:52:30.961Z,96614.25
2023-04-29T04:55:15.335Z,96616.88
2023-04-29T04:57:46.832Z,96619.41
2023-04-29T05:00:16.334Z,96621.69
2023-04-29T05:02:45.184Z,96623.75
2023-04-29T05:05:13.869Z,96622.25
2023-04-29T05:07:45.491Z,96623.97
2023-04-29T05:10:14.710Z,96624.53
2023-04-29T05:12:49.390Z,96625.53
2023-04-29T05:15:19.197Z,96630.25
2023-04-29T05:17:50.528Z,96637.56
2023-04-29T05:20:20.527Z,96640.97
2023-04-29T05:22:50.832Z,96649.66
2023-04-29T05:25:19.643Z,96651.34
2023-04-29T05:27:48.923Z,96652.53
2023-04-29T05:30:20.453Z,96648.00
2023-04-29T05:32:49.369Z,96643.63
2023-04-29T05:35:20.506Z,96650.72
2023-04-29T05:37:50.719Z,96649.09
2023-04-29T05:40:27.243Z,96646.59
2023-04-29T05:43:05.306Z,96656.41
2023-04-29T05:45:33.707Z,96657.34
2023-04-29T05:48:02.754Z,96659.06
2023-04-29T05:50:31.513Z,96661.38
2023-04-29T05:53:02.052Z,96668.31
2023-04-29T05:55:30.950Z,96670.03
2023-04-29T05:57:59.287Z,96666.13
2023-04-29T06:00:27.984Z,96667.03
2023-04-29T06:03:03.528Z,96673.19
2023-04-29T06:05:32.672Z,96668.94
2023-04-29T06:08:32.194Z,96671.25
2023-04-29T06:11:06.411Z,96674.69
2023-04-29T06:13:35.117Z,96682.00
2023-04-29T06:16:03.970Z,96675.50
2023-04-29T06:18:35.470Z,96684.75
2023-04-29T06:21:04.261Z,96681.13
2023-04-29T06:23:34.011Z,96684.53
2023-04-29T06:26:07.592Z,96689.91
2023-04-29T06:28:36.249Z,96698.47
2023-04-29T06:31:05.585Z,96697.09
2023-04-29T06:33:34.842Z,96700.06
2023-04-29T06:36:03.652Z,96700.75
2023-04-29T06:38:48.619Z,96713.19
2023-04-29T06:41:43.938Z,96718.22
2023-04-29T06:44:42.705Z,96717.88
2023-04-29T06:47:38.687Z,96712.84
2023-04-29T06:50:26.519Z,96709.09
2023-04-29T06:52:54.910Z,96708.69
2023-04-29T06:55:25.009Z,96702.88
2023-04-29T06:57:54.031Z,96697.22
2023-04-29T07:00:22.876Z,96702.97
2023-04-29T07:02:51.740Z,96702.22
2023-04-29T07:05:20.540Z,96699.75
2023-04-29T07:07:49.177Z,96716.16
2023-04-29T07:10:17.877Z,96710.28
2023-04-29T07:12:47.634Z,96714.13
2023-04-29T07:15:17.467Z,96720.09
2023-04-29T07:17:46.441Z,96713.25
2023-04-29T07:20:15.830Z,96717.16
2023-04-29T07:22:44.512Z,96715.91
2023-04-29T07:25:12.983Z,96712.81
2023-04-29T07:27:42.050Z,96714.28
2023-04-29T07:30:12.672Z,96716.72
2023-04-29T07:32:41.883Z,96716.22
2023-04-29T07:35:10.944Z,96721.13
2023-04-29T07:37:40.325Z,96718.84
2023-04-29T07:40:10.932Z,96720.00
2023-04-29T07:42:40.050Z,96727.91
2023-04-29T07:45:11.687Z,96721.66
2023-04-29T07:47:40.450Z,96723.13
2023-04-29T07:50:09.958Z,96711.78
2023-04-29T07:52:40.838Z,96710.34
2023-04-29T07:55:11.162Z,96716.34
2023-04-29T07:57:39.914Z,96719.75
2023-04-29T08:00:12.090Z,96716.28
2023-04-29T08:02:52.276Z,96718.44
2023-04-29T08:05:21.877Z,96723.22
2023-04-29T08:07:51.134Z,96727.50
2023-04-29T08:10:22.541Z,96718.84
2023-04-29T08:12:51.580Z,96725.50
2023-04-29T08:15:21.588Z,96727.91
2023-04-29T08:17:50.278Z,96729.09
2023-04-29T08:20:18.820Z,96723.34
2023-04-29T08:22:47.453Z,96732.19
2023-04-29T08:25:16.057Z,96733.16
2023-04-29T08:27:45.966Z,96730.97
2023-04-29T08:30:15.059Z,96727.69
2023-04-29T08:32:45.089Z,96728.94
2023-04-29T08:35:13.995Z,96721.31
2023-04-29T08:37:42.503Z,96722.53
2023-04-29T08:40:12.476Z,96723.06
2023-04-29T08:42:41.208Z,96722.22
2023-04-29T08:45:10.583Z,96727.00
2023-04-29T08:47:40.227Z,96725.66
2023-04-29T08:50:11.831Z,96726.34
2023-04-29T08:52:40.843Z,96730.94
2023-04-29T08:55:10.582Z,96721.19
2023-04-29T08:57:40.731Z,96734.13
2023-04-29T09:00:11.721Z,96726.19
2023-04-29T09:02:46.149Z,96733.28
2023-04-29T09:05:16.412Z,96730.16
2023-04-29T09:07:47.052Z,96735.25
2023-04-29T09:10:17.405Z,96738.88
2023-04-29T09:12:46.279Z,96741.59
2023-04-29T09:15:15.040Z,96738.94
2023-04-29T09:17:46.102Z,96739.66
2023-04-29T09:20:32.153Z,96737.06
2023-04-29T09:23:03.575Z,96737.81
2023-04-29T09:25:32.831Z,96735.31
2023-04-29T09:28:17.429Z,96738.44
2023-04-29T09:30:50.714Z,96744.25
2023-04-29T09:33:19.384Z,96743.44
2023-04-29T09:35:49.366Z,96749.38
2023-04-29T09:38:18.728Z,96751.69
2023-04-29T09:40:58.793Z,96753.91
2023-04-29T09:43:27.925Z,96753.53
2023-04-29T09:45:56.985Z,96750.53
2023-04-29T09:48:35.549Z,96760.72
2023-04-29T09:51:05.889Z,96764.16
2023-04-29T09:53:38.028Z,96765.25
2023-04-29T09:56:07.432Z,96766.50
2023-04-29T09:58:38.321Z,96767.91
2023-04-29T10:01:08.268Z,96764.25
2023-04-29T10:03:38.974Z,96776.19
2023-04-29T10:06:09.717Z,96774.63
2023-04-29T10:08:41.454Z,96773.84
2023-04-29T10:11:12.846Z,96767.69
2023-04-29T10:13:44.582Z,96771.66
2023-04-29T10:16:30.317Z,96776.56
2023-04-29T10:19:08.797Z,96776.50
2023-04-29T10:21:41.289Z,96788.34
2023-04-29T10:24:11.030Z,96781.06
2023-04-29T10:26:43.122Z,96778.84
2023-04-29T10:29:15.941Z,96788.44
2023-04-29T10:31:45.890Z,96782.13
2023-04-29T10:34:18.182Z,96781.63
2023-04-29T10:36:49.060Z,96789.53
2023-04-29T10:39:28.128Z,96787.13
2023-04-29T10:41:58.785Z,96799.63
2023-04-29T10:44:27.366Z,96790.75
2023-04-29T10:47:22.987Z,96789.66
2023-04-29T10:50:05.360Z,96796.50
2023-04-29T10:52:53.364Z,96801.00
2023-04-29T10:55:21.718Z,96794.31
2023-04-29T10:57:50.420Z,96801.00
2023-04-29T11:00:24.506Z,96797.50
2023-04-29T11:02:54.642Z,96797.72
2023-04-29T11:05:33.169Z,96794.88
2023-04-29T11:08:13.526Z,96790.22
2023-04-29T11:10:44.112Z,96788.47
2023-04-29T11:13:26.842Z,96792.91
2023-04-29T11:16:04.828Z,96791.97
2023-04-29T11:18:34.703Z,96787.13
2023-04-29T11:21:16.227Z,96794.31
2023-04-29T11:23:47.875Z,96793.81
2023-04-29T11:26:16.719Z,96787.13
2023-04-29T11:28:46.227Z,96797.75
2023-04-29T11:31:15.126Z,96794.75
2023-04-29T11:33:44.230Z,96800.63
2023-04-29T11:36:13.181Z,96796.69
2023-04-29T11:38:42.496Z,96795.81
2023-04-29T11:41:13.347Z,96799.59
2023-04-29T11:43:43.677Z,96803.75
2023-04-29T11:46:16.084Z,96807.91
2023-04-29T11:48:49.109Z,96794.44
2023-04-29T11:51:19.087Z,96810.50
2023-04-29T11:53:48.243Z,96807.09
2023-04-29T11:56:18.295Z,96803.69
2023-04-29T11:58:46.724Z,96809.91
2023-04-29T12:01:15.246Z,96819.69
2023-04-29T12:03:46.628Z,96815.03
2023-04-29T12:06:16.174Z,96823.38
2023-04-29T12:08:47.897Z,96824.75
2023-04-29T12:11:18.765Z,96829.75
2023-04-29T12:13:47.554Z,96819.06
2023-04-29T12:16:16.483Z,96823.59
2023-04-29T12:18:45.313Z,96821.44
2023-04-29T12:21:14.768Z,96830.69
2023-04-29T12:23:43.175Z,96817.09
2023-04-29T12:26:12.449Z,96812.06
2023-04-29T12:28:42.929Z,96817.69
2023-04-29T12:31:12.573Z,96802.38
2023-04-29T12:33:45.626Z,96818.91
2023-04-29T12:36:19.282Z,96807.50
2023-04-29T12:38:50.090Z,96813.06
2023-04-29T12:41:18.595Z,96809.09
2023-04-29T12:43:51.430Z,96808.72
2023-04-29T12:46:23.474Z,96810.22
2023-04-29T12:48:52.252Z,96816.25
2023-04-29T12:51:20.984Z,96807.06
2023-04-29T12:53:49.945Z,96820.53
2023-04-29T12:56:18.568Z,96820.47
2023-04-29T12:58:49.003Z,96812.72
2023-04-29T13:01:18.742Z,96817.63
2023-04-29T13:03:47.671Z,96818.41
2023-04-29T13:06:16.537Z,96826.00
2023-04-29T13:08:45.782Z,96830.72
2023-04-29T13:11:14.489Z,96822.97
2023-04-29T13:13:43.093Z,96820.06
2023-04-29T13:16:13.442Z,96834.41
2023-04-29T13:18:49.228Z,96827.59
2023-04-29T13:21:32.129Z,96824.13
2023-04-29T13:24:00.906Z,96824.59
2023-04-29T13:26:29.297Z,96824.41
2023-04-29T13:28:58.162Z,96831.81
2023-04-29T13:31:28.897Z,96825.56
2023-04-29T13:33:57.639Z,96834.00
2023-04-29T13:36:28.247Z,96829.00
2023-04-29T13:38:56.920Z,96829.31
2023-04-29T13:41:26.518Z,96825.75
2023-04-29T13:43:58.017Z,96827.22
2023-04-29T13:46:30.337Z,96829.97
2023-04-29T13:52:16.801Z,96828.88
2023-04-29T13:57:40.163Z,96825.63
2023-04-29T13:59:48.733Z,96834.06
2023-04-29T14:02:28.247Z,96824.19
2023-04-29T14:04:57.774Z,96826.78
2023-04-29T14:07:26.865Z,96824.94
2023-04-29T14:09:55.545Z,96827.78
2023-04-29T14:12:24.380Z,96821.78
2023-04-29T14:14:53.403Z,96824.56
2023-04-29T14:17:21.924Z,96824.28
2023-04-29T14:19:51.818Z,96824.28
2023-04-29T14:22:21.503Z,96820.94
2023-04-29T14:24:50.226Z,96825.94
2023-04-29T14:27:18.868Z,96837.94
2023-04-29T14:29:47.860Z,96833.88
2023-04-29T14:32:16.227Z,96832.19
2023-04-29T14:34:44.950Z,96839.38
2023-04-29T14:37:14.674Z,96843.88
2023-04-29T14:39:43.293Z,96844.63
2023-04-29T14:42:12.896Z,96854.59
2023-04-29T14:44:41.615Z,96853.09
2023-04-29T14:47:10.532Z,96854.09
2023-04-29T14:49:38.862Z,96862.91
2023-04-29T14:52:07.808Z,96856.97
2023-04-29T14:54:37.605Z,96862.44
2023-04-29T14:57:06.611Z,96863.94
2023-04-29T14:59:35.367Z,96870.66
2023-04-29T15:02:03.773Z,96863.09
2023-04-29T15:04:32.528Z,96874.06
2023-04-29T15:07:01.172Z,96872.50
2023-04-29T15:09:29.566Z,96878.75
2023-04-29T15:11:59.486Z,96876.00
2023-04-29T15:14:29.140Z,96878.97
2023-04-29T15:16:57.743Z,96880.66
2023-04-29T15:19:26.450Z,96876.72
2023-04-29T15:21:55.075Z,96881.31
2023-04-29T15:24:23.788Z,96888.75
2023-04-29T15:26:53.779Z,96884.44
2023-04-29T15:29:23.632Z,96888.00
2023-04-29T15:31:52.390Z,96888.75
2023-04-29T15:34:21.676Z,96876.56
2023-04-29T15:36:51.626Z,96887.34
2023-04-29T15:39:20.269Z,96894.47
2023-04-29T15:41:49.472Z,96902.41
2023-04-29T15:44:17.834Z,96911.22
2023-04-29T15:46:47.505Z,96915.03
2023-04-29T15:49:16.235Z,96917.63
2023-04-29T15:51:44.859Z,96912.19
2023-04-29T15:54:13.848Z,96919.84
2023-04-29T15:56:42.529Z,96920.00
2023-04-29T15:59:11.121Z,96913.31
2023-04-29T16:01:39.900Z,96919.47
2023-04-29T16:04:10.076Z,96921.25
2023-04-29T16:06:38.887Z,96923.03
2023-04-29T16:09:07.652Z,96934.13
2023-04-29T16:11:36.543Z,96928.38
2023-04-29T16:14:05.350Z,96933.63
2023-04-29T16:16:34.432Z,96932.69
2023-04-29T16:19:02.869Z,96928.88
2023-04-29T16:21:32.945Z,96929.97
2023-04-29T16:24:01.590Z,96936.00
2023-04-29T16:26:30.426Z,96939.22
2023-04-29T16:28:59.862Z,96944.25
2023-04-29T16:31:29.479Z,96944.66
2023-04-29T16:33:58.442Z,96945.00
2023-04-29T16:36:27.937Z,96949.41
2023-04-29T16:38:58.108Z,96952.72
2023-04-29T16:41:27.168Z,96951.78
2023-04-29T16:43:55.941Z,96956.59
2023-04-29T16:46:25.346Z,96962.44
2023-04-29T16:48:57.599Z,96957.41
2023-04-29T16:51:27.472Z,96965.53
2023-04-29T16:53:57.377Z,96968.75
2023-04-29T16:56:26.793Z,96975.03
2023-04-29T16:58:55.513Z,96973.91
2023-04-29T17:01:24.450Z,96976.88
2023-04-29T17:03:53.581Z,96975.38
2023-04-29T17:06:21.904Z,96976.66
2023-04-29T17:08:51.897Z,96975.78
2023-04-29T17:11:22.295Z,96971.31
2023-04-29T17:13:51.478Z,96974.06
2023-04-29T17:16:20.223Z,96976.03
2023-04-29T17:18:48.920Z,96971.63
2023-04-29T17:21:18.021Z,96970.72
2023-04-29T17:23:47.162Z,96978.88
2023-04-29T17:26:15.909Z,96977.19
2023-04-29T17:28:46.526Z,96981.56
2023-04-29T17:31:15.462Z,96980.53
2023-04-29T17:33:54.958Z,96979.00
2023-04-29T17:36:23.872Z,96991.16
2023-04-29T17:38:52.228Z,96995.75
2023-04-29T17:41:20.880Z,96993.25
2023-04-29T17:43:51.459Z,96996.78
2023-04-29T17:46:20.199Z,96995.66
2023-04-29T17:48:48.977Z,96996.56
2023-04-29T17:51:17.548Z,96996.22
2023-04-29T17:53:46.661Z,97000.81
2023-04-29T17:56:15.427Z,97007.66
2023-04-29T17:58:44.338Z,97001.97
2023-04-29T18:01:14.626Z,97002.41
2023-04-29T18:03:47.121Z,96998.50
2023-04-29T18:06:16.601Z,97004.69
2023-04-29T18:08:45.298Z,97005.38
2023-04-29T18:11:14.150Z,97010.28
2023-04-29T18:13:43.385Z,97014.50
2023-04-29T18:16:13.436Z,97012.25
2023-04-29T18:18:42.157Z,97018.41
2023-04-29T18:21:10.908Z,97017.59
2023-04-29T18:23:40.601Z,97013.69
2023-04-29T18:26:10.250Z,97019.28
2023-04-29T18:28:38.887Z,97019.97
2023-04-29T18:31:07.762Z,97013.69
2023-04-29T18:33:37.806Z,97020.66
2023-04-29T18:36:07.334Z,97020.44
2023-04-29T18:38:36.450Z,97024.53
2023-04-29T18:41:06.766Z,97017.22
2023-04-29T18:43:35.653Z,97016.38
2023-04-29T18:46:04.446Z,97022.44
2023-04-29T18:48:34.331Z,97029.88
2023-04-29T18:51:06.110Z,97036.66
2023-04-29T18:53:34.920Z,97035.59
2023-04-29T18:56:03.754Z,97044.72
2023-04-29T18:58:32.015Z,97041.19
2023-04-29T19:01:02.622Z,97034.63
2023-04-29T19:03:31.553Z,97040.19
2023-04-29T19:06:00.642Z,97043.28
2023-04-29T19:08:30.782Z,97051.25
2023-04-29T19:11:00.800Z,97048.75
2023-04-29T19:13:29.583Z,97043.88
2023-04-29T19:15:58.703Z,97053.00
2023-04-29T19:18:27.921Z,97056.00
2023-04-29T19:20:57.195Z,97053.94
2023-04-29T19:23:25.950Z,97055.59
2023-04-29T19:25:56.149Z,97064.47
2023-04-29T19:28:25.286Z,97063.50
2023-04-29T19:30:54.148Z,97066.09
2023-04-29T19:33:22.851Z,97070.00
2023-04-29T19:35:51.757Z,97065.84
2023-04-29T19:38:21.008Z,97074.69
2023-04-29T19:40:49.812Z,97079.25
2023-04-29T19:43:19.770Z,97075.72
2023-04-29T19:45:48.661Z,97082.66
2023-04-29T19:48:17.709Z,97085.88
2023-04-29T19:50:46.320Z,97090.25
2023-04-29T19:53:15.011Z,97086.22
2023-04-29T19:55:44.793Z,97092.50
2023-04-29T19:58:13.610Z,97087.81
2023-04-29T20:00:43.847Z,97089.28
2023-04-29T20:03:12.935Z,97094.59
2023-04-29T20:05:42.260Z,97091.34
2023-04-29T20:08:11.455Z,97095.41
2023-04-29T20:10:41.510Z,97091.19
2023-04-29T20:13:10.282Z,97098.44
2023-04-29T20:15:39.302Z,97088.16
2023-04-29T20:18:09.168Z,97093.78
2023-04-29T20:20:38.089Z,97091.84
2023-04-29T20:23:07.783Z,97088.59
2023-04-29T20:25:36.784Z,97092.13
2023-04-29T20:28:05.841Z,97092.28
2023-04-29T20:30:34.898Z,97093.69
2023-04-29T20:33:04.462Z,97096.28
2023-04-29T20:35:35.650Z,97096.06
2023-04-29T20:38:04.563Z,97102.00
2023-04-29T20:40:33.410Z,97106.28
2023-04-29T20:43:02.873Z,97100.50
2023-04-29T20:45:31.901Z,97102.22
2023-04-29T20:48:00.763Z,97105.09
2023-04-29T20:50:29.715Z,97107.81
2023-04-29T20:52:59.606Z,97111.00
2023-04-29T20:55:28.493Z,97117.63
2023-04-29T20:57:58.543Z,97119.94
2023-04-29T21:00:27.344Z,97122.78
2023-04-29T21:02:56.217Z,97113.28
2023-04-29T21:05:25.014Z,97119.06
2023-04-29T21:07:53.780Z,97121.97
2023-04-29T21:10:24.152Z,97130.09
2023-04-29T21:12:53.205Z,97128.09
2023-04-29T21:15:21.775Z,97133.41
2023-04-29T21:17:50.615Z,97133.44
2023-04-29T21:20:19.790Z,97133.19
2023-04-29T21:22:48.378Z,97138.50
2023-04-29T21:25:17.424Z,97141.94
2023-04-29T21:27:47.311Z,97145.50
2023-04-29T21:30:16.087Z,97142.78
2023-04-29T21:32:45.118Z,97148.41
2023-04-29T21:35:14.160Z,97147.78
2023-04-29T21:37:43.176Z,97149.34
2023-04-29T21:40:12.830Z,97148.25
2023-04-29T21:42:43.352Z,97145.19
2023-04-29T21:45:16.140Z,97149.34
2023-04-29T21:47:45.143Z,97147.25
2023-04-29T21:50:14.370Z,97148.50
2023-04-29T21:52:43.303Z,97149.91
2023-04-29T21:55:12.328Z,97141.72
2023-04-29T21:57:44.815Z,97150.13
2023-04-29T22:00:33.247Z,97155.06
2023-04-29T22:03:02.354Z,97157.47
2023-04-29T22:05:31.423Z,97155.06
2023-04-29T22:08:02.875Z,97153.31
2023-04-29T22:10:31.567Z,97159.91
2023-04-29T22:13:00.265Z,97156.84
2023-04-29T22:15:31.031Z,97148.34
2023-04-29T22:17:59.648Z,97154.13
2023-04-29T22:20:28.719Z,97153.81
2023-04-29T22:22:57.900Z,97156.06
2023-04-29T22:25:26.885Z,97163.00
2023-04-29T22:27:55.603Z,97158.81
2023-04-29T22:30:24.207Z,97159.13
2023-04-29T22:32:55.046Z,97166.84
2023-04-29T22:35:23.574Z,97174.25
2023-04-29T22:37:52.202Z,97166.53
2023-04-29T22:40:21.099Z,97164.44
2023-04-29T22:42:49.766Z,97168.31
2023-04-29T22:45:18.590Z,97171.34
2023-04-29T22:47:47.344Z,97174.72
2023-04-29T22:50:17.527Z,97179.56
2023-04-29T22:52:45.947Z,97176.19
2023-04-29T22:55:14.696Z,97180.81
2023-04-29T22:57:43.567Z,97178.94
2023-04-29T23:00:14.322Z,97186.81
2023-04-29T23:02:42.972Z,97178.75
2023-04-29T23:05:11.597Z,97178.25
2023-04-29T23:07:41.435Z,97169.88
2023-04-29T23:10:11.162Z,97175.31
2023-04-29T23:12:39.493Z,97178.06
2023-04-29T23:15:09.846Z,97181.25
2023-04-29T23:17:39.811Z,97185.25
2023-04-29T23:20:10.041Z,97184.63
2023-04-29T23:22:40.110Z,97177.56
2023-04-29T23:25:09.939Z,97183.66
2023-04-29T23:27:38.961Z,97171.47
2023-04-29T23:30:09.089Z,97175.16
2023-04-29T23:32:38.144Z,97172.75
2023-04-29T23:35:07.787Z,97184.94
2023-04-29T23:37:36.625Z,97170.50
2023-04-29T23:40:09.298Z,97173.22
2023-04-29T23:42:38.163Z,97172.59
2023-04-29T23:45:08.338Z,97173.84
2023-04-29T23:47:37.267Z,97167.91
2023-04-29T23:50:07.120Z,97164.88
2023-04-29T23:52:36.180Z,97167.75
2023-04-29T23:55:07.530Z,97165.63
2023-04-29T23:57:36.428Z,97162.38
